createdAt,value
2018-12-14T00:00:59.932Z,419.73
2018-12-14T00:01:59.893Z,418.88
2018-12-14T00:02:59.903Z,419.29
2018-12-14T00:03:59.891Z,418.88
2018-12-14T00:04:59.918Z,418.57
2018-12-14T00:06:00.024Z,418.72
2018-12-14T00:06:59.885Z,418.26
2018-12-14T00:07:59.913Z,418.75
2018-12-14T00:08:59.850Z,419.21
2018-12-14T00:09:59.824Z,420.48
2018-12-14T00:11:00.767Z,417.97
2018-12-14T00:11:59.793Z,418.89
2018-12-14T00:12:59.833Z,418.76
2018-12-14T00:13:59.895Z,418.25
2018-12-14T00:14:59.866Z,420.09
2018-12-14T00:15:59.736Z,418.27
2018-12-14T00:16:59.754Z,419.21
2018-12-14T00:17:59.765Z,419.27
2018-12-14T00:18:59.762Z,418.90
2018-12-14T00:19:59.729Z,417.98
2018-12-14T00:20:59.696Z,419.08
2018-12-14T00:21:59.709Z,418.18
2018-12-14T00:22:59.662Z,418.24
2018-12-14T00:23:59.664Z,419.08
2018-12-14T00:24:59.648Z,418.27
2018-12-14T00:25:59.637Z,419.28
2018-12-14T00:26:59.623Z,418.30
2018-12-14T00:27:59.620Z,418.38
2018-12-14T00:28:59.635Z,418.50
2018-12-14T00:29:59.624Z,419.09
2018-12-14T00:30:59.605Z,418.37
2018-12-14T00:31:59.597Z,419.37
2018-12-14T00:32:59.562Z,417.96
2018-12-14T00:33:59.566Z,417.93
2018-12-14T00:34:59.574Z,418.33
2018-12-14T00:35:59.553Z,417.72
2018-12-14T00:36:59.568Z,418.20
2018-12-14T00:37:59.563Z,418.61
2018-12-14T00:39:00.444Z,418.74
2018-12-14T00:39:59.513Z,419.96
2018-12-14T00:40:59.502Z,418.67
2018-12-14T00:41:59.524Z,418.12
2018-12-14T00:42:59.481Z,418.38
2018-12-14T00:43:59.474Z,418.17
2018-12-14T00:44:59.483Z,418.74
2018-12-14T00:45:59.434Z,418.17
2018-12-14T00:46:59.551Z,418.14
2018-12-14T00:47:59.395Z,418.54
2018-12-14T00:48:59.431Z,418.17
2018-12-14T00:49:59.429Z,419.62
2018-12-14T00:50:59.407Z,419.74
2018-12-14T00:51:59.371Z,417.94
2018-12-14T00:52:59.456Z,417.79
2018-12-14T00:53:59.391Z,418.20
2018-12-14T00:54:59.331Z,418.99
2018-12-14T00:55:59.353Z,418.36
2018-12-14T00:56:59.307Z,418.43
2018-12-14T00:57:59.386Z,418.70
2018-12-14T00:58:59.299Z,418.31
2018-12-14T00:59:59.311Z,418.94
2018-12-14T01:00:59.283Z,418.43
2018-12-14T01:01:59.247Z,418.01
2018-12-14T01:02:59.256Z,417.60
2018-12-14T01:03:59.292Z,418.65
2018-12-14T01:04:59.219Z,417.83
2018-12-14T01:05:59.222Z,418.64
2018-12-14T01:06:59.225Z,417.90
2018-12-14T01:07:59.230Z,418.19
2018-12-14T01:08:59.197Z,419.05
2018-12-14T01:09:59.221Z,419.45
2018-12-14T01:10:59.158Z,419.07
2018-12-14T01:11:59.136Z,418.61
2018-12-14T01:12:59.142Z,419.85
2018-12-14T01:13:59.155Z,418.92
2018-12-14T01:14:59.122Z,418.46
2018-12-14T01:15:59.097Z,418.45
2018-12-14T01:16:59.116Z,419.15
2018-12-14T01:17:59.136Z,418.23
2018-12-14T01:18:59.076Z,418.61
2018-12-14T01:19:59.104Z,418.65
2018-12-14T01:20:59.083Z,418.69
2018-12-14T01:21:59.104Z,418.08
2018-12-14T01:22:59.081Z,418.73
2018-12-14T01:23:59.019Z,418.26
2018-12-14T01:24:59.028Z,419.02
2018-12-14T01:25:59.054Z,418.50
2018-12-14T01:26:59.033Z,418.94
2018-12-14T01:27:59.022Z,419.09
2018-12-14T01:28:59.012Z,418.68
2018-12-14T01:29:59.024Z,418.26
2018-12-14T01:30:58.982Z,418.12
2018-12-14T01:31:58.977Z,418.78
2018-12-14T01:32:58.976Z,418.52
2018-12-14T01:33:58.979Z,419.02
2018-12-14T01:34:58.926Z,418.88
2018-12-14T01:35:58.969Z,418.08
2018-12-14T01:36:58.941Z,419.01
2018-12-14T01:37:58.909Z,419.80
2018-12-14T01:38:58.901Z,418.43
2018-12-14T01:39:58.927Z,419.92
2018-12-14T01:40:58.906Z,419.30
2018-12-14T01:42:04.689Z,418.97
2018-12-14T01:42:59.890Z,419.09
2018-12-14T01:43:58.930Z,418.95
2018-12-14T01:44:58.837Z,419.15
2018-12-14T01:45:58.820Z,418.72
2018-12-14T01:46:58.842Z,419.92
2018-12-14T01:47:58.812Z,419.29
2018-12-14T01:48:58.792Z,418.67
2018-12-14T01:49:58.773Z,419.28
2018-12-14T01:50:58.769Z,418.85
2018-12-14T01:51:58.820Z,419.93
2018-12-14T01:52:58.760Z,419.10
2018-12-14T01:53:58.737Z,419.23
2018-12-14T01:54:58.742Z,419.09
2018-12-14T01:55:58.722Z,419.47
2018-12-14T01:56:58.727Z,419.77
2018-12-14T01:57:58.726Z,419.35
2018-12-14T01:58:58.725Z,419.73
2018-12-14T01:59:58.701Z,419.57
2018-12-14T02:00:58.653Z,420.33
2018-12-14T02:01:58.639Z,419.35
2018-12-14T02:02:58.622Z,419.13
2018-12-14T02:03:58.624Z,419.66
2018-12-14T02:04:58.597Z,419.72
2018-12-14T02:05:58.664Z,419.34
2018-12-14T02:06:58.610Z,419.52
2018-12-14T02:07:58.608Z,419.56
2018-12-14T02:08:58.580Z,419.07
2018-12-14T02:09:58.580Z,419.34
2018-12-14T02:10:58.631Z,418.80
2018-12-14T02:11:58.537Z,419.55
2018-12-14T02:12:58.530Z,419.95
2018-12-14T02:13:58.540Z,419.69
2018-12-14T02:14:58.510Z,419.00
2018-12-14T02:15:58.512Z,418.87
2018-12-14T02:16:58.486Z,419.17
2018-12-14T02:17:58.495Z,418.74
2018-12-14T02:18:58.479Z,419.51
2018-12-14T02:19:58.481Z,419.91
2018-12-14T02:20:58.447Z,419.37
2018-12-14T02:21:58.439Z,418.24
2018-12-14T02:22:58.494Z,419.21
2018-12-14T02:23:58.410Z,418.75
2018-12-14T02:24:58.413Z,419.49
2018-12-14T02:25:58.415Z,419.68
2018-12-14T02:26:58.393Z,419.28
2018-12-14T02:27:58.371Z,419.23
2018-12-14T02:28:58.437Z,419.02
2018-12-14T02:29:58.360Z,419.00
2018-12-14T02:30:58.367Z,419.33
2018-12-14T02:31:58.333Z,419.53
2018-12-14T02:32:58.330Z,419.19
2018-12-14T02:33:58.352Z,419.09
2018-12-14T02:34:58.306Z,419.32
2018-12-14T02:35:58.282Z,418.85
2018-12-14T02:36:58.287Z,418.96
2018-12-14T02:37:58.300Z,419.80
2018-12-14T02:38:58.300Z,419.17
2018-12-14T02:39:58.243Z,418.22
2018-12-14T02:40:58.251Z,419.17
2018-12-14T02:41:58.267Z,419.11
2018-12-14T02:42:58.218Z,418.70
2018-12-14T02:43:58.197Z,419.04
2018-12-14T02:44:58.237Z,420.03
2018-12-14T02:45:58.224Z,418.52
2018-12-14T02:46:58.158Z,419.91
2018-12-14T02:47:58.186Z,419.49
2018-12-14T02:48:58.144Z,419.70
2018-12-14T02:49:58.147Z,419.00
2018-12-14T02:50:58.139Z,418.80
2018-12-14T02:51:58.201Z,419.69
2018-12-14T02:52:58.117Z,419.55
2018-12-14T02:53:58.121Z,419.27
2018-12-14T02:54:58.099Z,418.21
2018-12-14T02:55:58.104Z,419.10
2018-12-14T02:56:58.128Z,418.71
2018-12-14T02:57:58.074Z,419.39
2018-12-14T02:58:58.069Z,419.69
2018-12-14T02:59:58.046Z,418.66
2018-12-14T03:00:58.076Z,419.22
2018-12-14T03:01:58.063Z,419.91
2018-12-14T03:02:58.041Z,419.82
2018-12-14T03:03:58.071Z,419.71
2018-12-14T03:04:58.037Z,419.26
2018-12-14T03:05:57.973Z,419.76
2018-12-14T03:06:57.986Z,419.42
2018-12-14T03:07:58.046Z,420.01
2018-12-14T03:08:57.947Z,419.65
2018-12-14T03:09:57.944Z,419.60
2018-12-14T03:10:57.932Z,419.84
2018-12-14T03:11:58.038Z,418.96
2018-12-14T03:12:57.933Z,419.51
2018-12-14T03:13:57.951Z,419.52
2018-12-14T03:14:57.910Z,418.31
2018-12-14T03:15:57.873Z,420.18
2018-12-14T03:16:57.898Z,419.66
2018-12-14T03:17:57.848Z,420.49
2018-12-14T03:18:57.910Z,420.28
2018-12-14T03:19:57.880Z,419.84
2018-12-14T03:20:57.843Z,419.42
2018-12-14T03:21:57.838Z,419.91
2018-12-14T03:22:57.870Z,419.55
2018-12-14T03:23:57.816Z,419.75
2018-12-14T03:24:57.809Z,419.49
2018-12-14T03:25:57.779Z,420.12
2018-12-14T03:26:58.031Z,420.18
2018-12-14T03:27:57.784Z,419.58
2018-12-14T03:28:58.119Z,419.90
2018-12-14T03:29:57.753Z,419.83
2018-12-14T03:30:57.855Z,420.05
2018-12-14T03:31:57.754Z,420.30
2018-12-14T03:32:57.707Z,419.92
2018-12-14T03:33:57.749Z,419.69
2018-12-14T03:34:57.678Z,419.46
2018-12-14T03:35:57.685Z,419.88
2018-12-14T03:36:57.669Z,419.57
2018-12-14T03:37:57.697Z,420.08
2018-12-14T03:38:57.657Z,420.19
2018-12-14T03:39:57.691Z,420.13
2018-12-14T03:40:57.645Z,419.43
2018-12-14T03:41:57.667Z,420.55
2018-12-14T03:42:57.597Z,420.51
2018-12-14T03:44:07.036Z,420.67
2018-12-14T03:45:07.081Z,420.95
2018-12-14T03:46:06.625Z,420.71
2018-12-14T03:47:06.193Z,420.28
2018-12-14T03:48:06.685Z,419.97
2018-12-14T03:48:57.531Z,419.89
2018-12-14T03:50:06.708Z,419.95
2018-12-14T03:51:06.794Z,420.32
2018-12-14T03:52:06.801Z,420.38
2018-12-14T03:53:06.364Z,419.81
2018-12-14T03:54:06.881Z,420.78
2018-12-14T03:54:57.471Z,420.59
2018-12-14T03:55:57.462Z,420.15
2018-12-14T03:56:57.452Z,420.00
2018-12-14T03:57:57.454Z,419.87
2018-12-14T03:58:57.446Z,419.81
2018-12-14T03:59:57.417Z,420.55
2018-12-14T04:00:57.405Z,419.65
2018-12-14T04:01:57.406Z,420.52
2018-12-14T04:03:06.909Z,419.81
2018-12-14T04:03:57.435Z,420.92
2018-12-14T04:04:57.382Z,420.56
2018-12-14T04:05:57.372Z,420.94
2018-12-14T04:06:57.388Z,420.28
2018-12-14T04:07:57.317Z,419.81
2018-12-14T04:09:05.987Z,419.73
2018-12-14T04:09:57.338Z,419.62
2018-12-14T04:10:57.318Z,420.20
2018-12-14T04:11:57.322Z,420.05
2018-12-14T04:12:57.300Z,419.30
2018-12-14T04:13:57.293Z,419.18
2018-12-14T04:15:05.934Z,420.33
2018-12-14T04:15:57.267Z,420.97
2018-12-14T04:16:57.262Z,419.84
2018-12-14T04:17:57.209Z,420.17
2018-12-14T04:18:57.221Z,420.89
2018-12-14T04:19:57.213Z,420.75
2018-12-14T04:20:57.224Z,421.27
2018-12-14T04:21:57.185Z,420.75
2018-12-14T04:22:57.170Z,421.21
2018-12-14T04:23:57.215Z,420.09
2018-12-14T04:24:57.213Z,420.79
2018-12-14T04:25:57.155Z,420.04
2018-12-14T04:26:57.130Z,419.94
2018-12-14T04:27:57.138Z,421.03
2018-12-14T04:28:57.153Z,421.33
2018-12-14T04:29:57.128Z,419.93
2018-12-14T04:30:57.098Z,420.30
2018-12-14T04:31:57.086Z,420.35
2018-12-14T04:32:57.068Z,419.81
2018-12-14T04:33:57.180Z,420.24
2018-12-14T04:34:57.048Z,420.38
2018-12-14T04:35:57.096Z,420.10
2018-12-14T04:36:57.026Z,420.87
2018-12-14T04:37:57.006Z,419.95
2018-12-14T04:38:57.020Z,420.30
2018-12-14T04:39:56.999Z,420.71
2018-12-14T04:40:57.003Z,420.05
2018-12-14T04:41:56.982Z,420.35
2018-12-14T04:42:56.959Z,420.51
2018-12-14T04:43:57.015Z,420.17
2018-12-14T04:45:06.492Z,420.62
2018-12-14T04:46:05.997Z,420.99
2018-12-14T04:46:56.967Z,420.47
2018-12-14T04:47:57.087Z,421.01
2018-12-14T04:48:56.921Z,420.71
2018-12-14T04:49:56.913Z,420.63
2018-12-14T04:50:56.890Z,419.54
2018-12-14T04:52:06.033Z,420.02
2018-12-14T04:53:04.087Z,420.34
2018-12-14T04:53:56.845Z,420.46
2018-12-14T04:54:56.835Z,420.08
2018-12-14T04:55:56.835Z,419.75
2018-12-14T04:56:56.830Z,420.05
2018-12-14T04:57:56.841Z,420.54
2018-12-14T04:58:56.821Z,419.78
2018-12-14T05:00:05.140Z,419.50
2018-12-14T05:00:56.793Z,420.00
2018-12-14T05:01:56.769Z,420.69
2018-12-14T05:02:56.795Z,419.86
2018-12-14T05:03:56.848Z,420.17
2018-12-14T05:04:56.803Z,420.87
2018-12-14T05:05:56.808Z,421.44
2018-12-14T05:06:56.720Z,420.90
2018-12-14T05:07:56.727Z,420.25
2018-12-14T05:08:56.821Z,421.02
2018-12-14T05:09:56.719Z,420.61
2018-12-14T05:10:56.727Z,420.70
2018-12-14T05:11:56.705Z,421.58
2018-12-14T05:12:56.744Z,420.72
2018-12-14T05:13:56.651Z,421.39
2018-12-14T05:14:56.760Z,420.73
2018-12-14T05:15:56.736Z,420.02
2018-12-14T05:16:56.665Z,421.94
2018-12-14T05:17:56.685Z,420.83
2018-12-14T05:18:56.610Z,420.55
2018-12-14T05:19:56.614Z,421.07
2018-12-14T05:20:56.621Z,419.72
2018-12-14T05:21:56.663Z,421.15
2018-12-14T05:22:56.588Z,421.77
2018-12-14T05:23:56.672Z,420.91
2018-12-14T05:24:56.640Z,420.58
2018-12-14T05:25:56.595Z,420.63
2018-12-14T05:26:56.610Z,420.80
2018-12-14T05:27:56.508Z,420.58
2018-12-14T05:28:56.516Z,420.51
2018-12-14T05:29:56.842Z,420.81
2018-12-14T05:30:56.581Z,421.70
2018-12-14T05:31:56.530Z,421.40
2018-12-14T05:33:01.292Z,420.50
2018-12-14T05:33:56.561Z,419.46
2018-12-14T05:34:56.471Z,421.47
2018-12-14T05:35:56.880Z,420.01
2018-12-14T05:36:59.089Z,420.96
2018-12-14T05:37:56.741Z,419.95
2018-12-14T05:38:58.534Z,420.14
2018-12-14T05:39:56.441Z,419.33
2018-12-14T05:40:56.389Z,419.38
2018-12-14T05:41:56.460Z,420.67
2018-12-14T05:43:02.359Z,420.56
2018-12-14T05:43:57.365Z,420.30
2018-12-14T05:44:56.348Z,421.29
2018-12-14T05:45:57.277Z,420.13
2018-12-14T05:46:56.322Z,420.29
2018-12-14T05:47:56.536Z,419.87
2018-12-14T05:48:56.448Z,421.07
2018-12-14T05:49:58.240Z,421.44
2018-12-14T05:50:56.965Z,420.80
2018-12-14T05:52:01.599Z,419.80
2018-12-14T05:52:57.044Z,420.37
2018-12-14T05:53:58.450Z,420.24
2018-12-14T05:54:56.304Z,420.57
2018-12-14T05:55:56.382Z,420.18
2018-12-14T05:56:56.232Z,419.85
2018-12-14T05:57:56.324Z,420.17
2018-12-14T05:58:56.786Z,420.49
2018-12-14T05:59:56.179Z,419.48
2018-12-14T06:00:56.185Z,420.04
2018-12-14T06:01:56.326Z,420.26
2018-12-14T06:02:56.148Z,420.00
2018-12-14T06:03:56.176Z,420.36
2018-12-14T06:04:56.129Z,421.28
2018-12-14T06:05:56.280Z,420.79
2018-12-14T06:06:56.108Z,419.96
2018-12-14T06:07:56.141Z,420.26
2018-12-14T06:08:57.154Z,420.56
2018-12-14T06:09:56.197Z,419.48
2018-12-14T06:10:56.071Z,419.70
2018-12-14T06:11:56.061Z,419.57
2018-12-14T06:12:56.539Z,419.47
2018-12-14T06:14:02.837Z,420.66
2018-12-14T06:14:56.034Z,419.70
2018-12-14T06:15:56.756Z,419.90
2018-12-14T06:16:56.104Z,420.62
2018-12-14T06:17:56.026Z,421.25
2018-12-14T06:18:55.987Z,420.09
2018-12-14T06:19:55.964Z,420.38
2018-12-14T06:20:55.954Z,420.73
2018-12-14T06:21:55.954Z,419.90
2018-12-14T06:22:55.945Z,420.10
2018-12-14T06:23:56.085Z,419.66
2018-12-14T06:24:55.952Z,420.80
2018-12-14T06:25:55.913Z,419.99
2018-12-14T06:26:55.907Z,420.17
2018-12-14T06:27:55.872Z,420.99
2018-12-14T06:28:55.923Z,420.52
2018-12-14T06:29:55.860Z,420.11
2018-12-14T06:30:55.860Z,420.34
2018-12-14T06:32:03.260Z,420.45
2018-12-14T06:32:56.336Z,420.43
2018-12-14T06:33:58.579Z,420.54
2018-12-14T06:34:58.053Z,422.49
2018-12-14T06:35:56.772Z,422.11
2018-12-14T06:36:55.790Z,420.96
2018-12-14T06:37:56.207Z,421.22
2018-12-14T06:38:56.622Z,420.99
2018-12-14T06:39:56.453Z,421.40
2018-12-14T06:40:55.829Z,419.67
2018-12-14T06:41:57.046Z,422.23
2018-12-14T06:42:56.932Z,420.31
2018-12-14T06:43:55.719Z,420.99
2018-12-14T06:44:55.732Z,420.76
2018-12-14T06:45:55.688Z,420.39
2018-12-14T06:46:55.679Z,419.91
2018-12-14T06:47:55.650Z,419.97
2018-12-14T06:48:55.661Z,420.01
2018-12-14T06:49:55.650Z,421.23
2018-12-14T06:50:55.630Z,420.33
2018-12-14T06:51:55.629Z,419.53
2018-12-14T06:52:55.610Z,420.13
2018-12-14T06:53:55.628Z,420.25
2018-12-14T06:54:55.593Z,420.83
2018-12-14T06:55:55.586Z,419.98
2018-12-14T06:56:55.582Z,421.12
2018-12-14T06:57:55.564Z,420.01
2018-12-14T06:58:55.562Z,421.03
2018-12-14T06:59:55.549Z,421.48
2018-12-14T07:00:55.606Z,419.81
2018-12-14T07:01:55.520Z,419.88
2018-12-14T07:02:55.507Z,420.13
2018-12-14T07:03:55.559Z,420.03
2018-12-14T07:04:55.540Z,419.51
2018-12-14T07:05:55.481Z,420.60
2018-12-14T07:06:55.493Z,421.67
2018-12-14T07:07:55.455Z,421.15
2018-12-14T07:08:55.453Z,420.44
2018-12-14T07:09:55.458Z,420.07
2018-12-14T07:10:55.455Z,420.62
2018-12-14T07:11:55.412Z,420.40
2018-12-14T07:12:55.416Z,420.60
2018-12-14T07:13:55.423Z,420.90
2018-12-14T07:14:55.398Z,420.30
2018-12-14T07:15:55.382Z,419.83
2018-12-14T07:16:55.377Z,419.56
2018-12-14T07:17:55.382Z,421.00
2018-12-14T07:18:55.337Z,422.42
2018-12-14T07:19:55.412Z,420.59
2018-12-14T07:20:55.332Z,421.82
2018-12-14T07:21:55.309Z,421.53
2018-12-14T07:22:55.312Z,420.42
2018-12-14T07:23:55.298Z,421.06
2018-12-14T07:24:55.293Z,420.93
2018-12-14T07:25:55.281Z,422.03
2018-12-14T07:26:55.260Z,421.00
2018-12-14T07:27:55.297Z,421.70
2018-12-14T07:28:55.267Z,421.74
2018-12-14T07:29:55.233Z,420.82
2018-12-14T07:30:55.246Z,420.91
2018-12-14T07:31:56.045Z,420.61
2018-12-14T07:32:55.218Z,421.08
2018-12-14T07:33:55.196Z,420.39
2018-12-14T07:34:55.212Z,419.91
2018-12-14T07:35:55.169Z,420.43
2018-12-14T07:36:55.179Z,420.45
2018-12-14T07:37:55.165Z,420.77
2018-12-14T07:38:55.203Z,420.73
2018-12-14T07:39:55.118Z,420.41
2018-12-14T07:40:55.116Z,420.85
2018-12-14T07:41:55.110Z,421.04
2018-12-14T07:42:55.278Z,420.40
2018-12-14T07:43:55.180Z,420.36
2018-12-14T07:44:55.114Z,420.43
2018-12-14T07:45:56.101Z,420.40
2018-12-14T07:46:55.068Z,422.07
2018-12-14T07:47:55.099Z,420.66
2018-12-14T07:48:55.093Z,421.01
2018-12-14T07:49:55.044Z,419.83
2018-12-14T07:50:55.007Z,420.44
2018-12-14T07:51:55.166Z,419.64
2018-12-14T07:52:54.996Z,420.52
2018-12-14T07:53:55.087Z,420.69
2018-12-14T07:54:54.984Z,419.70
2018-12-14T07:55:54.958Z,419.98
2018-12-14T07:56:55.705Z,420.03
2018-12-14T07:57:54.928Z,419.55
2018-12-14T07:58:54.962Z,420.27
2018-12-14T07:59:54.923Z,419.84
2018-12-14T08:00:54.930Z,420.85
2018-12-14T08:01:54.901Z,420.08
2018-12-14T08:02:54.896Z,420.10
2018-12-14T08:03:54.873Z,421.51
2018-12-14T08:04:55.273Z,420.32
2018-12-14T08:05:54.852Z,421.23
2018-12-14T08:06:54.846Z,420.04
2018-12-14T08:07:54.839Z,420.57
2018-12-14T08:08:54.868Z,420.26
2018-12-14T08:09:54.810Z,420.53
2018-12-14T08:10:54.822Z,420.11
2018-12-14T08:11:54.807Z,421.29
2018-12-14T08:12:54.803Z,422.19
2018-12-14T08:13:54.783Z,420.22
2018-12-14T08:14:54.779Z,420.15
2018-12-14T08:15:54.823Z,420.87
2018-12-14T08:16:54.769Z,420.64
2018-12-14T08:17:54.746Z,421.01
2018-12-14T08:18:54.714Z,420.20
2018-12-14T08:19:54.987Z,420.05
2018-12-14T08:20:54.740Z,420.88
2018-12-14T08:21:54.765Z,420.32
2018-12-14T08:22:54.678Z,419.27
2018-12-14T08:23:54.698Z,420.35
2018-12-14T08:24:54.699Z,419.99
2018-12-14T08:25:54.691Z,420.18
2018-12-14T08:26:54.655Z,419.98
2018-12-14T08:27:54.713Z,420.36
2018-12-14T08:28:54.711Z,420.15
2018-12-14T08:29:54.629Z,421.30
2018-12-14T08:30:54.646Z,419.97
2018-12-14T08:31:54.613Z,419.69
2018-12-14T08:32:54.595Z,419.96
2018-12-14T08:33:54.600Z,420.29
2018-12-14T08:34:54.570Z,419.91
2018-12-14T08:35:54.561Z,420.31
2018-12-14T08:36:54.526Z,420.59
2018-12-14T08:37:54.555Z,419.65
2018-12-14T08:38:54.557Z,420.49
2018-12-14T08:39:54.509Z,421.38
2018-12-14T08:40:54.554Z,420.33
2018-12-14T08:41:54.620Z,420.06
2018-12-14T08:42:54.473Z,421.02
2018-12-14T08:43:54.489Z,420.64
2018-12-14T08:44:54.495Z,419.43
2018-12-14T08:45:54.498Z,420.18
2018-12-14T08:46:54.443Z,420.86
2018-12-14T08:47:54.562Z,421.66
2018-12-14T08:48:54.428Z,420.76
2018-12-14T08:49:54.461Z,420.25
2018-12-14T08:50:54.395Z,419.75
2018-12-14T08:51:54.386Z,419.86
2018-12-14T08:52:54.499Z,421.03
2018-12-14T08:53:54.485Z,421.28
2018-12-14T08:54:54.378Z,420.71
2018-12-14T08:55:54.338Z,420.56
2018-12-14T08:56:54.375Z,419.47
2018-12-14T08:57:54.601Z,420.91
2018-12-14T08:58:54.348Z,420.60
2018-12-14T08:59:54.387Z,420.44
2018-12-14T09:00:54.270Z,420.47
2018-12-14T09:01:54.279Z,420.20
2018-12-14T09:02:54.321Z,420.83
2018-12-14T09:03:54.317Z,419.97
2018-12-14T09:04:54.232Z,421.03
2018-12-14T09:05:54.359Z,420.88
2018-12-14T09:06:54.258Z,420.67
2018-12-14T09:07:54.341Z,420.02
2018-12-14T09:08:54.219Z,420.97
2018-12-14T09:09:54.221Z,420.24
2018-12-14T09:10:54.217Z,419.79
2018-12-14T09:11:54.178Z,420.67
2018-12-14T09:12:54.145Z,419.90
2018-12-14T09:13:54.157Z,420.82
2018-12-14T09:14:54.150Z,420.47
2018-12-14T09:15:54.245Z,420.52
2018-12-14T09:17:03.654Z,420.90
2018-12-14T09:18:05.215Z,421.30
2018-12-14T09:20:34.052Z,421.08
2018-12-14T09:22:45.201Z,419.62
2018-12-14T09:24:36.874Z,420.06
2018-12-14T09:25:36.868Z,420.79
2018-12-14T09:26:36.842Z,421.00
2018-12-14T09:27:36.808Z,420.35
2018-12-14T09:28:46.236Z,420.51
2018-12-14T09:29:36.815Z,420.69
2018-12-14T09:30:42.503Z,420.07
2018-12-14T09:31:37.778Z,420.26
2018-12-14T09:32:36.801Z,419.70
2018-12-14T09:33:36.744Z,421.06
2018-12-14T09:34:46.294Z,421.46
2018-12-14T09:35:36.735Z,419.85
2018-12-14T09:36:36.792Z,421.32
2018-12-14T09:37:36.690Z,420.87
2018-12-14T09:38:36.707Z,420.05
2018-12-14T09:39:36.681Z,420.68
2018-12-14T09:40:36.764Z,420.19
2018-12-14T09:41:36.806Z,421.44
2018-12-14T09:42:45.806Z,421.13
2018-12-14T09:43:36.734Z,420.40
2018-12-14T09:44:36.654Z,420.60
2018-12-14T09:45:36.634Z,420.59
2018-12-14T09:46:37.175Z,420.97
2018-12-14T09:47:36.607Z,420.19
2018-12-14T09:48:36.613Z,420.40
2018-12-14T09:49:36.591Z,420.12
2018-12-14T09:50:36.609Z,421.79
2018-12-14T09:51:36.574Z,420.66
2018-12-14T09:52:36.560Z,421.69
2018-12-14T09:53:36.559Z,421.26
2018-12-14T09:54:36.528Z,420.62
2018-12-14T09:55:36.549Z,420.54
2018-12-14T09:56:36.515Z,420.46
2018-12-14T09:57:36.529Z,421.40
2018-12-14T09:58:36.500Z,420.16
2018-12-14T09:59:36.478Z,420.27
2018-12-14T10:00:36.515Z,421.00
2018-12-14T10:01:36.514Z,420.90
2018-12-14T10:02:36.468Z,420.40
2018-12-14T10:03:36.465Z,421.13
2018-12-14T10:04:36.479Z,421.00
2018-12-14T10:05:36.439Z,420.75
2018-12-14T10:06:36.462Z,420.08
2018-12-14T10:07:36.420Z,421.24
2018-12-14T10:08:36.402Z,420.62
2018-12-14T10:09:36.445Z,420.75
2018-12-14T10:10:36.394Z,420.16
2018-12-14T10:11:36.371Z,420.70
2018-12-14T10:12:36.428Z,420.32
2018-12-14T10:13:36.390Z,420.89
2018-12-14T10:14:36.336Z,420.07
2018-12-14T10:15:36.331Z,420.38
2018-12-14T10:16:36.315Z,420.58
2018-12-14T10:17:36.300Z,419.81
2018-12-14T10:18:36.340Z,419.90
2018-12-14T10:19:36.296Z,420.92
2018-12-14T10:20:36.281Z,420.29
2018-12-14T10:21:36.258Z,420.53
2018-12-14T10:22:41.562Z,420.53
2018-12-14T10:23:37.269Z,420.99
2018-12-14T10:24:36.245Z,420.22
2018-12-14T10:25:36.252Z,420.15
2018-12-14T10:26:36.211Z,420.87
2018-12-14T10:27:36.236Z,420.67
2018-12-14T10:28:36.224Z,420.83
2018-12-14T10:29:36.187Z,420.38
2018-12-14T10:30:36.165Z,421.15
2018-12-14T10:31:36.160Z,419.97
2018-12-14T10:32:36.169Z,420.25
2018-12-14T10:33:36.201Z,421.00
2018-12-14T10:34:36.175Z,420.32
2018-12-14T10:35:36.162Z,421.45
2018-12-14T10:36:36.121Z,421.40
2018-12-14T10:37:36.101Z,420.63
2018-12-14T10:38:36.108Z,421.08
2018-12-14T10:39:36.100Z,420.60
2018-12-14T10:40:36.114Z,420.99
2018-12-14T10:41:36.081Z,420.58
2018-12-14T10:42:36.045Z,420.66
2018-12-14T10:43:36.078Z,420.43
2018-12-14T10:44:36.050Z,420.48
2018-12-14T10:45:36.034Z,420.80
2018-12-14T10:46:36.027Z,421.42
2018-12-14T10:47:35.997Z,420.41
2018-12-14T10:48:35.976Z,421.83
2018-12-14T10:49:36.014Z,421.13
2018-12-14T10:50:39.604Z,420.79
2018-12-14T10:51:35.960Z,420.26
2018-12-14T10:52:35.964Z,420.63
2018-12-14T10:53:35.934Z,420.49
2018-12-14T10:54:35.947Z,420.26
2018-12-14T10:55:35.982Z,420.97
2018-12-14T10:56:35.918Z,421.17
2018-12-14T10:57:35.950Z,421.50
2018-12-14T10:58:35.891Z,421.01
2018-12-14T10:59:35.875Z,419.78
2018-12-14T11:00:35.871Z,420.93
2018-12-14T11:01:35.901Z,421.03
2018-12-14T11:02:35.827Z,420.60
2018-12-14T11:03:35.837Z,420.75
2018-12-14T11:04:35.815Z,420.60
2018-12-14T11:05:35.825Z,420.40
2018-12-14T11:06:35.803Z,421.89
2018-12-14T11:07:35.823Z,421.29
2018-12-14T11:08:35.766Z,421.56
2018-12-14T11:09:35.775Z,421.59
2018-12-14T11:10:35.753Z,420.68
2018-12-14T11:11:35.789Z,421.33
2018-12-14T11:12:35.753Z,420.70
2018-12-14T11:13:35.728Z,420.86
2018-12-14T11:14:35.736Z,419.83
2018-12-14T11:15:35.707Z,420.72
2018-12-14T11:16:35.741Z,420.40
2018-12-14T11:17:35.760Z,420.93
2018-12-14T11:18:35.702Z,422.24
2018-12-14T11:19:35.668Z,420.86
2018-12-14T11:20:35.691Z,421.14
2018-12-14T11:21:35.656Z,420.59
2018-12-14T11:22:35.629Z,420.38
2018-12-14T11:23:35.667Z,420.77
2018-12-14T11:24:35.623Z,421.37
2018-12-14T11:25:35.612Z,421.16
2018-12-14T11:26:35.611Z,420.03
2018-12-14T11:27:35.582Z,420.79
2018-12-14T11:28:35.598Z,420.54
2018-12-14T11:29:35.554Z,420.48
2018-12-14T11:30:35.561Z,420.90
2018-12-14T11:31:35.562Z,420.95
2018-12-14T11:32:35.531Z,420.61
2018-12-14T11:33:35.551Z,420.54
2018-12-14T11:34:35.516Z,421.38
2018-12-14T11:35:35.480Z,420.77
2018-12-14T11:36:35.467Z,421.03
2018-12-14T11:37:35.482Z,420.80
2018-12-14T11:38:35.497Z,421.46
2018-12-14T11:39:35.482Z,421.08
2018-12-14T11:40:35.508Z,421.09
2018-12-14T11:41:35.439Z,420.98
2018-12-14T11:42:35.429Z,421.34
2018-12-14T11:43:35.428Z,421.05
2018-12-14T11:44:35.401Z,420.55
2018-12-14T11:45:35.400Z,421.12
2018-12-14T11:46:35.418Z,420.77
2018-12-14T11:47:35.380Z,422.00
2018-12-14T11:48:35.365Z,420.99
2018-12-14T11:49:35.412Z,421.30
2018-12-14T11:50:35.334Z,421.45
2018-12-14T11:51:35.399Z,421.21
2018-12-14T11:52:35.306Z,421.35
2018-12-14T11:53:35.343Z,421.27
2018-12-14T11:54:35.289Z,421.29
2018-12-14T11:55:35.315Z,421.65
2018-12-14T11:56:35.294Z,422.50
2018-12-14T11:57:35.296Z,421.50
2018-12-14T11:58:35.301Z,421.32
2018-12-14T11:59:35.306Z,420.53
2018-12-14T12:00:35.246Z,420.42
2018-12-14T12:01:35.244Z,420.16
2018-12-14T12:02:35.254Z,421.15
2018-12-14T12:03:35.225Z,421.75
2018-12-14T12:04:35.217Z,421.26
2018-12-14T12:05:35.222Z,420.84
2018-12-14T12:06:35.303Z,421.23
2018-12-14T12:07:35.201Z,419.92
2018-12-14T12:08:35.167Z,420.98
2018-12-14T12:09:35.191Z,420.90
2018-12-14T12:10:35.179Z,421.87
2018-12-14T12:11:35.136Z,420.94
2018-12-14T12:12:35.177Z,420.82
2018-12-14T12:13:35.137Z,422.25
2018-12-14T12:14:35.124Z,422.12
2018-12-14T12:15:35.213Z,420.46
2018-12-14T12:16:35.190Z,420.04
2018-12-14T12:17:35.134Z,421.98
2018-12-14T12:18:35.065Z,421.32
2018-12-14T12:19:35.103Z,421.06
2018-12-14T12:20:35.045Z,420.97
2018-12-14T12:21:35.087Z,420.41
2018-12-14T12:22:35.081Z,421.45
2018-12-14T12:23:35.009Z,420.62
2018-12-14T12:24:35.058Z,421.03
2018-12-14T12:25:35.044Z,420.03
2018-12-14T12:27:46.112Z,420.46
2018-12-14T12:28:46.086Z,420.81
2018-12-14T12:29:46.107Z,421.16
2018-12-14T12:30:46.036Z,421.17
2018-12-14T12:31:46.095Z,421.53
2018-12-14T12:32:46.036Z,421.11
2018-12-14T12:33:46.018Z,421.17